sensor_id;sensor_type;location;lat;lon;timestamp;pressure;altitude;pressure_sealevel;temperature;humidity
19208;BME280;9737;59.466;18.036;2023-02-14T00:01:18;97440.13;;;2.66;73.06
19208;BME280;9737;59.466;18.036;2023-02-14T00:03:47;97371.88;;;2.47;73.14
19208;BME280;9737;59.466;18.036;2023-02-14T00:06:17;97352.84;;;2.45;73.19
19208;BME280;9737;59.466;18.036;2023-02-14T00:08:45;97419.56;;;2.62;73.02
19208;BME280;9737;59.466;18.036;2023-02-14T00:11:13;97397.28;;;2.56;73.00
19208;BME280;9737;59.466;18.036;2023-02-14T00:13:41;97445.38;;;2.66;73.07
19208;BME280;9737;59.466;18.036;2023-02-14T00:16:29;97467.34;;;2.75;73.06
19208;BME280;9737;59.466;18.036;2023-02-14T00:18:57;97457.97;;;2.72;73.07
19208;BME280;9737;59.466;18.036;2023-02-14T00:21:34;97480.19;;;2.78;72.65
19208;BME280;9737;59.466;18.036;2023-02-14T00:24:03;97486.00;;;2.82;73.13
19208;BME280;9737;59.466;18.036;2023-02-14T00:26:31;97453.53;;;2.73;73.11
19208;BME280;9737;59.466;18.036;2023-02-14T00:28:59;97412.66;;;2.61;73.26
19208;BME280;9737;59.466;18.036;2023-02-14T00:31:27;97455.34;;;2.72;73.35
19208;BME280;9737;59.466;18.036;2023-02-14T00:33:55;97478.41;;;2.78;73.12
19208;BME280;9737;59.466;18.036;2023-02-14T00:36:23;97482.69;;;2.79;73.12
19208;BME280;9737;59.466;18.036;2023-02-14T00:38:52;97458.66;;;2.74;73.16
19208;BME280;9737;59.466;18.036;2023-02-14T00:41:20;97406.59;;;2.60;73.08
19208;BME280;9737;59.466;18.036;2023-02-14T00:43:51;97395.63;;;2.55;73.07
19208;BME280;9737;59.466;18.036;2023-02-14T00:46:21;97388.72;;;2.54;73.07
19208;BME280;9737;59.466;18.036;2023-02-14T00:48:50;97319.44;;;2.37;72.81
19208;BME280;9737;59.466;18.036;2023-02-14T00:51:19;97332.28;;;2.40;72.96
19208;BME280;9737;59.466;18.036;2023-02-14T00:53:48;97366.38;;;2.50;73.08
19208;BME280;9737;59.466;18.036;2023-02-14T00:56:18;97391.22;;;2.56;73.06
19208;BME280;9737;59.466;18.036;2023-02-14T00:58:47;97440.81;;;2.68;73.04
19208;BME280;9737;59.466;18.036;2023-02-14T01:01:16;97425.50;;;2.64;73.04
19208;BME280;9737;59.466;18.036;2023-02-14T01:03:44;97372.44;;;2.51;73.06
19208;BME280;9737;59.466;18.036;2023-02-14T01:06:13;97309.22;;;2.34;73.01
19208;BME280;9737;59.466;18.036;2023-02-14T01:08:41;97232.34;;;2.14;73.02
19208;BME280;9737;59.466;18.036;2023-02-14T01:11:11;97263.94;;;2.23;73.15
19208;BME280;9737;59.466;18.036;2023-02-14T01:13:41;97229.72;;;2.14;73.03
19208;BME280;9737;59.466;18.036;2023-02-14T01:16:11;97130.81;;;1.88;73.04
19208;BME280;9737;59.466;18.036;2023-02-14T01:18:40;97082.97;;;1.76;73.24
19208;BME280;9737;59.466;18.036;2023-02-14T01:21:13;97040.22;;;1.66;72.92
19208;BME280;9737;59.466;18.036;2023-02-14T01:23:42;97026.03;;;1.59;72.56
19208;BME280;9737;59.466;18.036;2023-02-14T01:26:11;97023.28;;;1.60;73.41
19208;BME280;9737;59.466;18.036;2023-02-14T01:28:40;97030.03;;;1.63;73.00
19208;BME280;9737;59.466;18.036;2023-02-14T01:31:11;96962.22;;;1.40;72.80
19208;BME280;9737;59.466;18.036;2023-02-14T01:33:41;96906.59;;;1.29;72.88
19208;BME280;9737;59.466;18.036;2023-02-14T01:36:14;96882.50;;;1.25;73.03
19208;BME280;9737;59.466;18.036;2023-02-14T01:38:42;96815.44;;;1.05;72.79
19208;BME280;9737;59.466;18.036;2023-02-14T01:41:11;96788.88;;;1.00;72.69
19208;BME280;9737;59.466;18.036;2023-02-14T01:44:02;96754.91;;;0.90;72.87
19208;BME280;9737;59.466;18.036;2023-02-14T01:46:33;96752.28;;;0.90;72.88
19208;BME280;9737;59.466;18.036;2023-02-14T01:49:03;96769.34;;;0.94;72.88
19208;BME280;9737;59.466;18.036;2023-02-14T01:51:34;96752.28;;;0.90;72.89
19208;BME280;9737;59.466;18.036;2023-02-14T01:54:05;96742.50;;;0.82;72.89
19208;BME280;9737;59.466;18.036;2023-02-14T01:56:38;96741.25;;;0.86;72.95
19208;BME280;9737;59.466;18.036;2023-02-14T01:59:10;96750.06;;;0.85;72.90
19208;BME280;9737;59.466;18.036;2023-02-14T02:01:39;96729.28;;;0.84;72.98
19208;BME280;9737;59.466;18.036;2023-02-14T02:04:09;96688.44;;;0.73;72.84
19208;BME280;9737;59.466;18.036;2023-02-14T02:06:41;96638.50;;;0.57;72.94
19208;BME280;9737;59.466;18.036;2023-02-14T02:09:14;96624.50;;;0.58;72.62
19208;BME280;9737;59.466;18.036;2023-02-14T02:11:44;96566.22;;;0.38;73.12
19208;BME280;9737;59.466;18.036;2023-02-14T02:14:15;96475.94;;;0.16;73.02
19208;BME280;9737;59.466;18.036;2023-02-14T02:16:59;96491.88;;;0.23;72.78
19208;BME280;9737;59.466;18.036;2023-02-14T02:23:55;96495.75;;;0.19;72.66
19208;BME280;9737;59.466;18.036;2023-02-14T02:27:03;96535.31;;;0.34;72.88
19208;BME280;9737;59.466;18.036;2023-02-14T02:35:20;96556.59;;;0.39;72.86
19208;BME280;9737;59.466;18.036;2023-02-14T02:38:05;96566.63;;;0.43;73.07
19208;BME280;9737;59.466;18.036;2023-02-14T02:40:45;96560.72;;;0.41;72.90
19208;BME280;9737;59.466;18.036;2023-02-14T02:43:25;96561.53;;;0.42;72.65
19208;BME280;9737;59.466;18.036;2023-02-14T02:46:00;96582.97;;;0.45;73.00
19208;BME280;9737;59.466;18.036;2023-02-14T02:48:54;96562.13;;;0.36;72.74
19208;BME280;9737;59.466;18.036;2023-02-14T02:51:30;96583.66;;;0.47;72.82
19208;BME280;9737;59.466;18.036;2023-02-14T02:54:19;96598.91;;;0.52;72.86
19208;BME280;9737;59.466;18.036;2023-02-14T02:56:53;96595.63;;;0.50;73.13
19208;BME280;9737;59.466;18.036;2023-02-14T02:59:27;96577.22;;;0.42;72.95
19208;BME280;9737;59.466;18.036;2023-02-14T03:02:01;96507.09;;;0.27;72.88
19208;BME280;9737;59.466;18.036;2023-02-14T03:04:31;96459.59;;;0.14;73.17
19208;BME280;9737;59.466;18.036;2023-02-14T03:07:20;96388.47;;;-0.07;72.98
19208;BME280;9737;59.466;18.036;2023-02-14T03:10:10;96326.28;;;-0.21;72.74
19208;BME280;9737;59.466;18.036;2023-02-14T03:13:01;96405.22;;;0.00;73.00
19208;BME280;9737;59.466;18.036;2023-02-14T03:15:48;96449.44;;;0.11;73.19
19208;BME280;9737;59.466;18.036;2023-02-14T03:18:28;96449.28;;;0.13;73.26
19208;BME280;9737;59.466;18.036;2023-02-14T03:21:04;96393.25;;;-0.03;73.19
19208;BME280;9737;59.466;18.036;2023-02-14T03:23:38;96342.34;;;-0.16;72.98
19208;BME280;9737;59.466;18.036;2023-02-14T03:26:15;96296.53;;;-0.28;73.12
19208;BME280;9737;59.466;18.036;2023-02-14T03:28:46;96251.13;;;-0.45;73.05
19208;BME280;9737;59.466;18.036;2023-02-14T03:31:23;96307.50;;;-0.25;73.21
19208;BME280;9737;59.466;18.036;2023-02-14T03:33:57;96307.63;;;-0.26;72.80
19208;BME280;9737;59.466;18.036;2023-02-14T03:36:30;96302.41;;;-0.26;72.83
19208;BME280;9737;59.466;18.036;2023-02-14T03:39:06;96250.69;;;-0.41;72.76
19208;BME280;9737;59.466;18.036;2023-02-14T03:41:40;96232.03;;;-0.46;72.78
19208;BME280;9737;59.466;18.036;2023-02-14T03:44:11;96283.06;;;-0.34;73.06
19208;BME280;9737;59.466;18.036;2023-02-14T03:46:44;96364.59;;;-0.12;73.54
19208;BME280;9737;59.466;18.036;2023-02-14T03:49:17;96417.03;;;0.04;72.84
19208;BME280;9737;59.466;18.036;2023-02-14T03:51:51;96447.50;;;0.13;72.84
19208;BME280;9737;59.466;18.036;2023-02-14T03:54:24;96440.94;;;0.09;73.10
19208;BME280;9737;59.466;18.036;2023-02-14T03:56:56;96395.34;;;-0.06;73.18
19208;BME280;9737;59.466;18.036;2023-02-14T03:59:26;96365.25;;;-0.10;73.32
19208;BME280;9737;59.466;18.036;2023-02-14T04:02:00;96352.50;;;-0.13;73.27
19208;BME280;9737;59.466;18.036;2023-02-14T04:04:32;96347.41;;;-0.15;73.42
19208;BME280;9737;59.466;18.036;2023-02-14T04:07:08;96371.16;;;-0.08;72.94
19208;BME280;9737;59.466;18.036;2023-02-14T04:09:38;96398.22;;;0.01;73.29
19208;BME280;9737;59.466;18.036;2023-02-14T04:12:06;96444.22;;;0.11;73.19
19208;BME280;9737;59.466;18.036;2023-02-14T04:14:35;96484.31;;;0.20;72.99
19208;BME280;9737;59.466;18.036;2023-02-14T04:17:03;96433.38;;;0.06;73.10
19208;BME280;9737;59.466;18.036;2023-02-14T04:19:49;96384.88;;;-0.06;73.22
19208;BME280;9737;59.466;18.036;2023-02-14T04:22:17;96388.19;;;-0.04;73.37
19208;BME280;9737;59.466;18.036;2023-02-14T04:24:47;96422.25;;;0.04;73.21
19208;BME280;9737;59.466;18.036;2023-02-14T04:27:15;96463.03;;;0.15;73.10
19208;BME280;9737;59.466;18.036;2023-02-14T04:29:44;96455.03;;;0.16;73.33
19208;BME280;9737;59.466;18.036;2023-02-14T04:32:14;96430.63;;;0.08;73.65
19208;BME280;9737;59.466;18.036;2023-02-14T04:34:42;96365.69;;;-0.15;73.47
19208;BME280;9737;59.466;18.036;2023-02-14T04:37:11;96345.09;;;-0.18;73.53
19208;BME280;9737;59.466;18.036;2023-02-14T04:39:39;96394.91;;;-0.02;73.03
19208;BME280;9737;59.466;18.036;2023-02-14T04:42:09;96454.38;;;0.14;73.25
19208;BME280;9737;59.466;18.036;2023-02-14T04:44:36;96499.41;;;0.26;73.59
19208;BME280;9737;59.466;18.036;2023-02-14T04:47:05;96518.28;;;0.29;73.50
19208;BME280;9737;59.466;18.036;2023-02-14T04:49:34;96524.31;;;0.30;73.46
19208;BME280;9737;59.466;18.036;2023-02-14T04:52:04;96497.78;;;0.25;73.48
19208;BME280;9737;59.466;18.036;2023-02-14T04:54:32;96474.00;;;0.18;73.67
19208;BME280;9737;59.466;18.036;2023-02-14T04:57:00;96474.00;;;0.18;73.72
19208;BME280;9737;59.466;18.036;2023-02-14T04:59:29;96446.97;;;0.10;73.64
19208;BME280;9737;59.466;18.036;2023-02-14T05:01:57;96424.88;;;0.04;73.24
19208;BME280;9737;59.466;18.036;2023-02-14T05:04:25;96416.34;;;0.02;73.26
19208;BME280;9737;59.466;18.036;2023-02-14T05:06:53;96402.72;;;-0.02;73.56
19208;BME280;9737;59.466;18.036;2023-02-14T05:09:20;96406.06;;;0.01;73.25
19208;BME280;9737;59.466;18.036;2023-02-14T05:11:48;96391.75;;;-0.05;73.93
19208;BME280;9737;59.466;18.036;2023-02-14T05:14:16;96419.78;;;0.03;73.35
19208;BME280;9737;59.466;18.036;2023-02-14T05:16:45;96412.22;;;-0.01;73.67
19208;BME280;9737;59.466;18.036;2023-02-14T05:19:13;96403.28;;;0.02;73.75
19208;BME280;9737;59.466;18.036;2023-02-14T05:21:41;96441.88;;;0.08;73.95
19208;BME280;9737;59.466;18.036;2023-02-14T05:24:09;96449.16;;;0.14;73.71
19208;BME280;9737;59.466;18.036;2023-02-14T05:26:37;96444.50;;;0.08;73.53
19208;BME280;9737;59.466;18.036;2023-02-14T05:29:06;96396.84;;;-0.04;73.84
19208;BME280;9737;59.466;18.036;2023-02-14T05:31:34;96361.28;;;-0.14;73.65
19208;BME280;9737;59.466;18.036;2023-02-14T05:34:03;96335.91;;;-0.22;74.00
19208;BME280;9737;59.466;18.036;2023-02-14T05:36:31;96290.75;;;-0.32;73.70
19208;BME280;9737;59.466;18.036;2023-02-14T05:38:59;96299.13;;;-0.28;73.48
19208;BME280;9737;59.466;18.036;2023-02-14T05:41:27;96333.16;;;-0.20;73.65
19208;BME280;9737;59.466;18.036;2023-02-14T05:43:55;96344.81;;;-0.15;73.47
19208;BME280;9737;59.466;18.036;2023-02-14T05:46:23;96350.03;;;-0.15;74.07
19208;BME280;9737;59.466;18.036;2023-02-14T05:48:50;96330.53;;;-0.20;73.79
19208;BME280;9737;59.466;18.036;2023-02-14T05:51:19;96308.59;;;-0.27;74.05
19208;BME280;9737;59.466;18.036;2023-02-14T05:53:47;96286.34;;;-0.32;73.57
19208;BME280;9737;59.466;18.036;2023-02-14T05:56:17;96277.31;;;-0.37;73.72
19208;BME280;9737;59.466;18.036;2023-02-14T05:58:44;96330.53;;;-0.20;73.97
19208;BME280;9737;59.466;18.036;2023-02-14T06:01:14;96405.22;;;0.00;74.05
19208;BME280;9737;59.466;18.036;2023-02-14T06:03:42;96434.34;;;0.05;74.03
19208;BME280;9737;59.466;18.036;2023-02-14T06:06:09;96405.22;;;0.00;73.73
19208;BME280;9737;59.466;18.036;2023-02-14T06:08:38;96392.72;;;-0.06;73.69
19208;BME280;9737;59.466;18.036;2023-02-14T06:11:06;96386.81;;;-0.08;73.75
19208;BME280;9737;59.466;18.036;2023-02-14T06:13:34;96434.88;;;0.09;74.05
19208;BME280;9737;59.466;18.036;2023-02-14T06:16:02;96429.41;;;0.02;73.93
19208;BME280;9737;59.466;18.036;2023-02-14T06:18:30;96444.50;;;0.08;74.05
19208;BME280;9737;59.466;18.036;2023-02-14T06:20:58;96449.44;;;0.11;74.24
19208;BME280;9737;59.466;18.036;2023-02-14T06:23:27;96424.88;;;0.04;74.04
19208;BME280;9737;59.466;18.036;2023-02-14T06:25:56;96379.13;;;-0.10;73.86
19208;BME280;9737;59.466;18.036;2023-02-14T06:28:24;96369.50;;;-0.09;73.87
19208;BME280;9737;59.466;18.036;2023-02-14T06:30:52;96387.50;;;-0.06;73.92
19208;BME280;9737;59.466;18.036;2023-02-14T06:33:20;96415.53;;;0.02;74.06
19208;BME280;9737;59.466;18.036;2023-02-14T06:35:48;96422.53;;;0.01;74.46
19208;BME280;9737;59.466;18.036;2023-02-14T06:38:15;96383.53;;;-0.10;74.09
19208;BME280;9737;59.466;18.036;2023-02-14T06:40:43;96333.97;;;-0.20;74.06
19208;BME280;9737;59.466;18.036;2023-02-14T06:43:12;96304.34;;;-0.28;74.60
19208;BME280;9737;59.466;18.036;2023-02-14T06:45:40;96317.78;;;-0.23;74.45
19208;BME280;9737;59.466;18.036;2023-02-14T06:48:09;96346.22;;;-0.20;74.11
19208;BME280;9737;59.466;18.036;2023-02-14T06:50:37;96404.53;;;-0.02;74.55
19208;BME280;9737;59.466;18.036;2023-02-14T06:53:05;96423.22;;;0.03;74.46
19208;BME280;9737;59.466;18.036;2023-02-14T06:55:33;96425.84;;;0.03;74.20
19208;BME280;9737;59.466;18.036;2023-02-14T06:58:01;96439.28;;;0.08;74.28
19208;BME280;9737;59.466;18.036;2023-02-14T07:00:31;96453.53;;;0.14;74.09
19208;BME280;9737;59.466;18.036;2023-02-14T07:02:59;96511.66;;;0.25;74.44
19208;BME280;9737;59.466;18.036;2023-02-14T07:05:27;96544.78;;;0.35;74.28
19208;BME280;9737;59.466;18.036;2023-02-14T07:07:55;96587.25;;;0.46;74.82
19208;BME280;9737;59.466;18.036;2023-02-14T07:10:23;96593.97;;;0.49;74.67
19208;BME280;9737;59.466;18.036;2023-02-14T07:12:51;96662.19;;;0.65;74.85
19208;BME280;9737;59.466;18.036;2023-02-14T07:15:19;96754.06;;;0.89;74.87
19208;BME280;9737;59.466;18.036;2023-02-14T07:17:48;96812.13;;;1.03;74.57
19208;BME280;9737;59.466;18.036;2023-02-14T07:20:16;96851.22;;;1.14;74.67
19208;BME280;9737;59.466;18.036;2023-02-14T07:22:44;96903.81;;;1.30;74.82
19208;BME280;9737;59.466;18.036;2023-02-14T07:25:13;96957.00;;;1.40;75.01
19208;BME280;9737;59.466;18.036;2023-02-14T07:27:41;96962.22;;;1.40;75.13
19208;BME280;9737;59.466;18.036;2023-02-14T07:30:10;96988.56;;;1.48;75.04
19208;BME280;9737;59.466;18.036;2023-02-14T07:32:39;97021.75;;;1.58;75.13
19208;BME280;9737;59.466;18.036;2023-02-14T07:35:09;97054.69;;;1.70;75.20
19208;BME280;9737;59.466;18.036;2023-02-14T07:37:39;97072.75;;;1.73;74.94
19208;BME280;9737;59.466;18.036;2023-02-14T07:40:08;97114.69;;;1.82;74.80
19208;BME280;9737;59.466;18.036;2023-02-14T07:42:41;97134.25;;;1.88;75.23
19208;BME280;9737;59.466;18.036;2023-02-14T07:45:09;97178.66;;;1.99;75.05
19208;BME280;9737;59.466;18.036;2023-02-14T07:47:47;97240.19;;;2.14;75.11
19208;BME280;9737;59.466;18.036;2023-02-14T07:50:17;97246.00;;;2.18;75.19
19208;BME280;9737;59.466;18.036;2023-02-14T07:52:46;97274.41;;;2.23;75.14
19208;BME280;9737;59.466;18.036;2023-02-14T07:55:16;97287.94;;;2.28;75.01
19208;BME280;9737;59.466;18.036;2023-02-14T07:57:46;97291.38;;;2.18;75.18
19208;BME280;9737;59.466;18.036;2023-02-14T08:00:14;97325.78;;;2.35;75.41
19208;BME280;9737;59.466;18.036;2023-02-14T08:02:42;97359.75;;;2.46;75.23
19208;BME280;9737;59.466;18.036;2023-02-14T08:05:10;97385.41;;;2.52;75.57
19208;BME280;9737;59.466;18.036;2023-02-14T08:07:39;97441.09;;;2.65;75.36
19208;BME280;9737;59.466;18.036;2023-02-14T08:10:09;97455.59;;;2.69;75.69
19208;BME280;9737;59.466;18.036;2023-02-14T08:12:38;97476.06;;;2.75;75.35
19208;BME280;9737;59.466;18.036;2023-02-14T08:15:25;97502.59;;;2.82;75.57
19208;BME280;9737;59.466;18.036;2023-02-14T08:18:11;97528.28;;;2.88;75.70
19208;BME280;9737;59.466;18.036;2023-02-14T08:20:38;97575.56;;;2.98;75.63
19208;BME280;9737;59.466;18.036;2023-02-14T08:23:08;97610.41;;;3.09;76.15
19208;BME280;9737;59.466;18.036;2023-02-14T08:25:35;97637.78;;;3.17;75.41
19208;BME280;9737;59.466;18.036;2023-02-14T08:28:04;97697.03;;;3.30;75.71
19208;BME280;9737;59.466;18.036;2023-02-14T08:30:32;97750.16;;;3.43;75.59
19208;BME280;9737;59.466;18.036;2023-02-14T08:33:02;97809.13;;;3.60;75.78
19208;BME280;9737;59.466;18.036;2023-02-14T08:35:30;97873.66;;;3.74;75.34
19208;BME280;9737;59.466;18.036;2023-02-14T08:37:58;97928.53;;;3.88;75.70
19208;BME280;9737;59.466;18.036;2023-02-14T08:40:27;97991.03;;;4.06;75.82
19208;BME280;9737;59.466;18.036;2023-02-14T08:42:55;98061.56;;;4.21;76.19
19208;BME280;9737;59.466;18.036;2023-02-14T08:45:23;98134.28;;;4.43;75.99
19208;BME280;9737;59.466;18.036;2023-02-14T08:47:51;98224.47;;;4.66;76.30
19208;BME280;9737;59.466;18.036;2023-02-14T08:50:19;98273.59;;;4.77;75.83
19208;BME280;9737;59.466;18.036;2023-02-14T08:52:47;98313.03;;;4.88;76.50
19208;BME280;9737;59.466;18.036;2023-02-14T08:55:15;98332.91;;;4.92;76.32
19208;BME280;9737;59.466;18.036;2023-02-14T08:57:44;98362.06;;;5.00;76.32
19208;BME280;9737;59.466;18.036;2023-02-14T09:00:13;98395.81;;;5.06;75.90
19208;BME280;9737;59.466;18.036;2023-02-14T09:02:41;98406.91;;;5.10;76.62
19208;BME280;9737;59.466;18.036;2023-02-14T09:05:09;98434.56;;;5.15;76.62
19208;BME280;9737;59.466;18.036;2023-02-14T09:07:37;98415.66;;;5.10;76.65
19208;BME280;9737;59.466;18.036;2023-02-14T09:10:06;98419.97;;;5.11;76.12
19208;BME280;9737;59.466;18.036;2023-02-14T09:12:34;98397.47;;;5.07;76.06
19208;BME280;9737;59.466;18.036;2023-02-14T09:15:07;98419.97;;;5.11;76.14
19208;BME280;9737;59.466;18.036;2023-02-14T09:17:36;98390.53;;;5.06;76.61
19208;BME280;9737;59.466;18.036;2023-02-14T09:20:07;98382.88;;;5.03;76.49
19208;BME280;9737;59.466;18.036;2023-02-14T09:22:36;98374.53;;;4.98;76.47
19208;BME280;9737;59.466;18.036;2023-02-14T09:25:04;98434.56;;;5.15;76.78
19208;BME280;9737;59.466;18.036;2023-02-14T09:27:32;98480.28;;;5.25;76.34
19208;BME280;9737;59.466;18.036;2023-02-14T09:30:00;98566.19;;;5.49;76.77
19208;BME280;9737;59.466;18.036;2023-02-14T09:32:29;98675.66;;;5.75;76.79
19208;BME280;9737;59.466;18.036;2023-02-14T09:34:57;98729.03;;;5.90;76.29
19208;BME280;9737;59.466;18.036;2023-02-14T09:37:42;98768.69;;;6.00;76.25
19208;BME280;9737;59.466;18.036;2023-02-14T09:40:30;98897.97;;;6.33;76.31
19208;BME280;9737;59.466;18.036;2023-02-14T09:43:02;99145.97;;;6.92;76.64
19208;BME280;9737;59.466;18.036;2023-02-14T09:45:33;99750.75;;;8.46;76.68
19208;BME280;9737;59.466;18.036;2023-02-14T09:48:06;100424.31;;;10.08;76.94
19208;BME280;9737;59.466;18.036;2023-02-14T09:50:40;101122.41;;;11.74;76.82
19208;BME280;9737;59.466;18.036;2023-02-14T09:53:19;101880.84;;;13.58;77.08
19208;BME280;9737;59.466;18.036;2023-02-14T09:55:54;102114.47;;;14.14;76.84
19208;BME280;9737;59.466;18.036;2023-02-14T09:58:28;102376.91;;;14.71;77.00
19208;BME280;9737;59.466;18.036;2023-02-14T10:01:05;102616.63;;;15.25;76.91
19208;BME280;9737;59.466;18.036;2023-02-14T10:03:52;102753.31;;;15.57;77.19
19208;BME280;9737;59.466;18.036;2023-02-14T10:06:46;103188.00;;;16.56;77.26
19208;BME280;9737;59.466;18.036;2023-02-14T10:09:35;103325.22;;;16.86;77.29
19208;BME280;9737;59.466;18.036;2023-02-14T10:12:09;103479.25;;;17.21;77.20
19208;BME280;9737;59.466;18.036;2023-02-14T10:14:41;103732.81;;;17.78;77.23
19208;BME280;9737;59.466;18.036;2023-02-14T10:17:15;103873.97;;;18.08;77.18
19208;BME280;9737;59.466;18.036;2023-02-14T10:19:51;104206.44;;;18.79;77.27
19208;BME280;9737;59.466;18.036;2023-02-14T10:22:22;103983.19;;;18.33;77.44
19208;BME280;9737;59.466;18.036;2023-02-14T10:24:54;104283.75;;;18.98;77.31
19208;BME280;9737;59.466;18.036;2023-02-14T10:27:29;104536.81;;;19.49;77.33
19208;BME280;9737;59.466;18.036;2023-02-14T10:29:58;104333.69;;;19.06;77.34
19208;BME280;9737;59.466;18.036;2023-02-14T10:32:34;104403.06;;;19.23;77.24
19208;BME280;9737;59.466;18.036;2023-02-14T10:35:13;104583.03;;;19.62;77.29
19208;BME280;9737;59.466;18.036;2023-02-14T10:37:51;104630.31;;;19.72;77.10
19208;BME280;9737;59.466;18.036;2023-02-14T10:40:34;104985.38;;;20.49;77.07
19208;BME280;9737;59.466;18.036;2023-02-14T10:43:14;104660.59;;;19.78;77.12
19208;BME280;9737;59.466;18.036;2023-02-14T10:45:52;105166.72;;;20.90;76.99
19208;BME280;9737;59.466;18.036;2023-02-14T10:48:30;104971.06;;;20.47;77.01
19208;BME280;9737;59.466;18.036;2023-02-14T10:51:03;104973.81;;;20.46;76.97
19208;BME280;9737;59.466;18.036;2023-02-14T10:53:37;104684.63;;;19.85;77.11
19208;BME280;9737;59.466;18.036;2023-02-14T10:56:15;104788.97;;;20.07;76.86
19208;BME280;9737;59.466;18.036;2023-02-14T10:58:47;104889.78;;;20.30;76.71
19208;BME280;9737;59.466;18.036;2023-02-14T11:01:17;105555.06;;;21.73;76.63
19208;BME280;9737;59.466;18.036;2023-02-14T11:03:51;106000.75;;;22.67;76.56
19208;BME280;9737;59.466;18.036;2023-02-14T11:06:21;105638.31;;;21.91;76.30
19208;BME280;9737;59.466;18.036;2023-02-14T11:08:49;105910.03;;;22.49;76.15
19208;BME280;9737;59.466;18.036;2023-02-14T11:11:21;105728.88;;;22.11;76.25
19208;BME280;9737;59.466;18.036;2023-02-14T11:13:50;105552.28;;;21.75;76.11
19208;BME280;9737;59.466;18.036;2023-02-14T11:16:29;105429.50;;;21.51;76.05
19208;BME280;9737;59.466;18.036;2023-02-14T11:19:13;106119.16;;;22.96;76.07
19208;BME280;9737;59.466;18.036;2023-02-14T11:21:48;105847.16;;;22.38;76.09
19208;BME280;9737;59.466;18.036;2023-02-14T11:24:18;105662.38;;;22.01;75.75
19208;BME280;9737;59.466;18.036;2023-02-14T11:26:48;105549.50;;;21.76;75.80
19208;BME280;9737;59.466;18.036;2023-02-14T11:29:24;105113.72;;;20.84;75.54
19208;BME280;9737;59.466;18.036;2023-02-14T11:31:53;105026.91;;;20.68;75.51
19208;BME280;9737;59.466;18.036;2023-02-14T11:34:33;104797.66;;;20.14;75.28
19208;BME280;9737;59.466;18.036;2023-02-14T11:37:16;104292.34;;;19.06;75.14
19208;BME280;9737;59.466;18.036;2023-02-14T11:39:45;104145.56;;;18.74;75.11
19208;BME280;9737;59.466;18.036;2023-02-14T11:42:30;104118.03;;;18.67;74.99
19208;BME280;9737;59.466;18.036;2023-02-14T11:44:58;103838.16;;;18.06;74.90
19208;BME280;9737;59.466;18.036;2023-02-14T11:47:28;104011.25;;;18.46;74.64
19208;BME280;9737;59.466;18.036;2023-02-14T11:49:59;103815.81;;;18.04;74.83
19208;BME280;9737;59.466;18.036;2023-02-14T11:52:29;103901.00;;;18.24;74.43
19208;BME280;9737;59.466;18.036;2023-02-14T11:54:58;103916.13;;;18.26;74.18
19208;BME280;9737;59.466;18.036;2023-02-14T11:57:28;103672.97;;;17.73;74.18
19208;BME280;9737;59.466;18.036;2023-02-14T12:00:02;103266.50;;;16.78;74.28
19208;BME280;9737;59.466;18.036;2023-02-14T12:02:35;103214.97;;;16.70;74.15
19208;BME280;9737;59.466;18.036;2023-02-14T12:05:13;103375.84;;;17.11;74.12
19208;BME280;9737;59.466;18.036;2023-02-14T12:07:47;103037.09;;;16.32;73.82
19208;BME280;9737;59.466;18.036;2023-02-14T12:10:19;103301.53;;;16.92;73.65
19208;BME280;9737;59.466;18.036;2023-02-14T12:12:50;103156.53;;;16.58;73.66
19208;BME280;9737;59.466;18.036;2023-02-14T12:15:27;103053.31;;;16.30;73.50
19208;BME280;9737;59.466;18.036;2023-02-14T12:18:02;102714.91;;;15.56;73.34
19208;BME280;9737;59.466;18.036;2023-02-14T12:20:39;102742.09;;;15.66;73.03
19208;BME280;9737;59.466;18.036;2023-02-14T12:23:16;102646.88;;;15.43;73.27
19208;BME280;9737;59.466;18.036;2023-02-14T12:25:49;102713.78;;;15.60;72.83
19208;BME280;9737;59.466;18.036;2023-02-14T12:28:23;102588.47;;;15.32;72.89
19208;BME280;9737;59.466;18.036;2023-02-14T12:30:52;102245.88;;;14.53;72.77
19208;BME280;9737;59.466;18.036;2023-02-14T12:33:21;102040.13;;;14.05;72.83
19208;BME280;9737;59.466;18.036;2023-02-14T12:35:56;102125.47;;;14.23;72.73
19208;BME280;9737;59.466;18.036;2023-02-14T12:38:37;102415.63;;;14.95;72.30
19208;BME280;9737;59.466;18.036;2023-02-14T12:41:20;102603.38;;;15.38;72.46
19208;BME280;9737;59.466;18.036;2023-02-14T12:43:52;102655.41;;;15.49;72.15
19208;BME280;9737;59.466;18.036;2023-02-14T12:46:38;102644.75;;;15.48;72.14
19208;BME280;9737;59.466;18.036;2023-02-14T12:49:21;102971.09;;;16.28;72.37
19208;BME280;9737;59.466;18.036;2023-02-14T12:52:01;103081.81;;;16.49;71.93
19208;BME280;9737;59.466;18.036;2023-02-14T12:54:40;103294.09;;;16.97;71.83
19208;BME280;9737;59.466;18.036;2023-02-14T12:57:18;103170.06;;;16.72;71.89
19208;BME280;9737;59.466;18.036;2023-02-14T12:59:56;102881.13;;;16.05;71.70
19208;BME280;9737;59.466;18.036;2023-02-14T13:02:46;102803.41;;;15.88;71.65
19208;BME280;9737;59.466;18.036;2023-02-14T13:05:20;103158.34;;;16.73;71.55
19208;BME280;9737;59.466;18.036;2023-02-14T13:08:11;103004.69;;;16.35;71.38
19208;BME280;9737;59.466;18.036;2023-02-14T13:10:52;102928.66;;;16.19;71.24
19208;BME280;9737;59.466;18.036;2023-02-14T13:13:31;102757.38;;;15.79;71.32
19208;BME280;9737;59.466;18.036;2023-02-14T13:16:09;102528.06;;;15.27;71.10
19208;BME280;9737;59.466;18.036;2023-02-14T13:18:48;102370.28;;;14.92;70.84
19208;BME280;9737;59.466;18.036;2023-02-14T13:21:19;102321.34;;;14.74;70.98
19208;BME280;9737;59.466;18.036;2023-02-14T13:23:52;102117.72;;;14.33;70.82
19208;BME280;9737;59.466;18.036;2023-02-14T13:26:27;101717.38;;;13.37;70.52
19208;BME280;9737;59.466;18.036;2023-02-14T13:29:01;101423.72;;;12.67;70.54
19208;BME280;9737;59.466;18.036;2023-02-14T13:31:29;101202.38;;;12.14;70.24
19208;BME280;9737;59.466;18.036;2023-02-14T13:34:02;101075.53;;;11.84;70.20
19208;BME280;9737;59.466;18.036;2023-02-14T13:36:34;100932.25;;;11.49;69.86
19208;BME280;9737;59.466;18.036;2023-02-14T13:39:04;101171.53;;;12.09;69.90